This is the latest recevied weather packets stored in our database for station/object K7LDN-13. If no packets are shown the sender has not sent any weather packets the latest 10 day(s).
| Time | Temp. | Humidity | Pressure | Rain* | Wind** | Luminosity | Snow |
|---|---|---|---|---|---|---|---|
| 1777934988 | 21.11° C | 31% | 1010.2 hPa | 0 mm | - | 207 W/m² | - |
| 1777934685 | 22.22° C | 28% | 1010.3 hPa | 0 mm | - | 440 W/m² | - |
| 1777934382 | 21.67° C | 29% | 1010.2 hPa | 0 mm | - | 276 W/m² | - |
| 1777934078 | 21.67° C | 28% | 1010.3 hPa | 0 mm | - | 267 W/m² | - |
| 1777933773 | 21.67° C | 27% | 1010.1 hPa | 0 mm | - | 583 W/m² | - |
| 1777933472 | 21.67° C | 28% | 1010.2 hPa | 0 mm | - | 381 W/m² | - |
| 1777933169 | 21.11° C | 29% | 1010.2 hPa | 0 mm | - | 429 W/m² | - |
| 1777932866 | 21.11° C | 31% | 1010.1 hPa | 0 mm | - | 536 W/m² | - |
| 1777932563 | 20.56° C | 31% | 1010.2 hPa | 0 mm | - | 385 W/m² | - |
| 1777932259 | 20.56° C | 31% | 1010.3 hPa | 0 mm | - | 329 W/m² | - |
| 1777931956 | 20.56° C | 33% | 1010.3 hPa | 0 mm | - | 314 W/m² | - |
| 1777931653 | 20° C | 34% | 1010.2 hPa | 0 mm | - | 335 W/m² | - |
| 1777931349 | 20° C | 34% | 1010.6 hPa | 0 mm | - | 409 W/m² | - |
| 1777931046 | 20° C | 36% | 1010.7 hPa | 0 mm | - | 337 W/m² | - |
| 1777930743 | 19.44° C | 35% | 1010.6 hPa | 0 mm | - | 324 W/m² | - |
| 1777930438 | 19.44° C | 36% | 1010.4 hPa | 0 mm | - | 320 W/m² | - |
| 1777930136 | 18.89° C | 36% | 1010.6 hPa | 0 mm | - | 330 W/m² | - |
| 1777929832 | 18.89° C | 37% | 1010.6 hPa | 0 mm | - | 292 W/m² | - |
| 1777929530 | 18.33° C | 38% | 1010.7 hPa | 0 mm | - | 270 W/m² | - |
| 1777929226 | 18.89° C | 37% | 1010.6 hPa | 0 mm | - | 245 W/m² | - |
| 1777928924 | 18.89° C | 36% | 1011 hPa | 0 mm | - | 220 W/m² | - |
| 1777928620 | 19.44° C | 34% | 1011.1 hPa | 0 mm | - | 199 W/m² | - |
| 1777928317 | 19.44° C | 34% | 1010.9 hPa | 0 mm | - | 189 W/m² | - |
| 1777928015 | 19.44° C | 33% | 1011 hPa | 0 mm | - | 184 W/m² | - |
| 1777927713 | 19.44° C | 32% | 1011 hPa | 0 mm | - | 181 W/m² | - |
* Rain latest hour (hover to see other rain measurements)
** Current wind speed in m/s (hover to see current wind gust speed)